Time;durP1;ratioP1;P1;durP2;ratioP2;P2;SDS_P1;SDS_P2;PMS_P1;PMS_P2;Temp;Humidity;BMP_temperature;BMP_pressure;BME280_temperature;BME280_humidity;BME280_pressure;Samples;Min_cycle;Max_cycle;Signal;HPM_P1;HPM_P2
2024/04/18 00:01:50;;;;;;;;;;;;;;;8.57;87.43;99698.88;107594;1254;99207;-62
2024/04/18 00:04:18;;;;;;;;;;;;;;;8.57;87.27;99700.47;107627;1254;113560;-64
2024/04/18 00:06:46;;;;;;;;;;;;;;;8.57;87.28;99697.60;107594;1253;107409;-64
2024/04/18 00:09:16;;;;;;;;;;;;;;;8.60;87.38;99690.76;107505;1255;107808;-65
2024/04/18 00:11:44;;;;;;;;;;;;;;;8.61;87.28;99693.48;107611;1255;99060;-63
2024/04/18 00:14:15;;;;;;;;;;;;;;;8.61;87.01;99694.41;107609;1254;99182;-64
2024/04/18 00:16:42;;;;;;;;;;;;;;;8.61;86.94;99691.73;107614;1253;112261;-64
2024/04/18 00:19:17;;;;;;;;;;;;;;;8.57;86.79;99695.81;107618;1253;108676;-62
2024/04/18 00:21:58;;;;;;;;;;;;;;;8.60;86.75;99696.09;107605;1252;107626;-64
2024/04/18 00:24:28;;;;;;;;;;;;;;;8.62;86.75;99699.17;107524;1254;99275;-63
2024/04/18 00:26:57;;;;;;;;;;;;;;;8.64;86.89;99698.23;107628;1253;99205;-63
2024/04/18 00:29:35;;;;;;;;;;;;;;;8.67;86.91;99703.48;107584;1255;113489;-63
2024/04/18 00:32:10;;;;;;;;;;;;;;;8.68;86.82;99703.00;107585;1254;107509;-63
2024/04/18 00:34:38;;;;;;;;;;;;;;;8.69;86.75;99699.71;107596;1253;108150;-62
2024/04/18 00:37:06;;;;;;;;;;;;;;;8.69;86.65;99703.48;107584;1254;99284;-64
2024/04/18 00:39:53;;;;;;;;;;;;;;;8.67;86.27;99704.13;107600;1254;99067;-64
2024/04/18 00:42:40;;;;;;;;;;;;;;;8.63;86.12;99714.40;107577;1254;112775;-62
2024/04/18 00:45:08;;;;;;;;;;;;;;;8.57;85.81;99709.60;107605;1254;107582;-61
2024/04/18 00:47:46;;;;;;;;;;;;;;;8.56;85.98;99708.66;107556;1254;107046;-63
2024/04/18 00:50:16;;;;;;;;;;;;;;;8.55;85.80;99711.80;107595;1254;99310;-63
2024/04/18 00:52:44;;;;;;;;;;;;;;;8.55;86.22;99713.39;107552;1254;99230;-63
2024/04/18 00:55:26;;;;;;;;;;;;;;;8.57;86.17;99716.02;107592;1254;112350;-61
2024/04/18 00:58:10;;;;;;;;;;;;;;;8.56;85.95;99712.18;107581;1254;108373;-64
2024/04/18 01:00:41;;;;;;;;;;;;;;;8.46;85.90;99712.05;107582;1254;108289;-62
2024/04/18 01:03:28;;;;;;;;;;;;;;;8.27;86.07;99708.68;107523;1254;99294;-64
2024/04/18 01:06:07;;;;;;;;;;;;;;;8.19;86.82;99707.52;107522;1254;99269;-63
2024/04/18 01:08:54;;;;;;;;;;;;;;;8.08;87.09;99706.52;107494;1254;113130;-63
2024/04/18 01:11:31;;;;;;;;;;;;;;;8.02;87.57;99705.70;107502;1253;107860;-62
2024/04/18 01:14:07;;;;;;;;;;;;;;;7.95;87.95;99698.73;107546;1254;107291;-62
2024/04/18 01:16:53;;;;;;;;;;;;;;;7.89;88.09;99693.21;107534;1252;99172;-63
2024/04/18 01:19:21;;;;;;;;;;;;;;;7.90;88.21;99692.20;107577;1256;99172;-63
2024/04/18 01:21:50;;;;;;;;;;;;;;;7.94;88.40;99691.34;107596;1254;113661;-63
2024/04/18 01:24:18;;;;;;;;;;;;;;;8.00;88.68;99688.23;107616;1253;106493;-63
2024/04/18 01:26:46;;;;;;;;;;;;;;;8.03;88.45;99690.67;107573;1256;108397;-62
2024/04/18 01:29:14;;;;;;;;;;;;;;;8.07;88.36;99694.17;107573;1254;99184;-64
2024/04/18 01:32:01;;;;;;;;;;;;;;;8.12;88.33;99694.02;107595;1256;99297;-63
2024/04/18 01:34:29;;;;;;;;;;;;;;;8.12;88.10;99697.94;107578;1254;112708;-64
2024/04/18 01:37:16;;;;;;;;;;;;;;;8.13;88.08;99699.67;107593;1255;107640;-63
2024/04/18 01:39:44;;;;;;;;;;;;;;;8.14;87.93;99698.36;107507;1253;108301;-63
2024/04/18 01:42:13;;;;;;;;;;;;;;;8.16;88.25;99696.91;107595;1253;99173;-64
2024/04/18 01:44:44;;;;;;;;;;;;;;;8.21;88.27;99687.52;107600;1253;99150;-64
2024/04/18 01:47:31;;;;;;;;;;;;;;;8.26;88.26;99674.67;107588;1254;114419;-64
2024/04/18 01:50:09;;;;;;;;;;;;;;;8.30;88.14;99659.31;107605;1254;107221;-62
2024/04/18 01:52:37;;;;;;;;;;;;;;;8.29;87.84;99653.85;107584;1254;108536;-62
2024/04/18 01:55:06;;;;;;;;;;;;;;;8.28;88.14;99645.70;107569;1253;99067;-63
2024/04/18 01:57:37;;;;;;;;;;;;;;;8.26;88.04;99636.25;107493;1254;99229;-63
2024/04/18 02:00:24;;;;;;;;;;;;;;;8.26;87.98;99631.29;107499;1254;113189;-64
2024/04/18 02:02:52;;;;;;;;;;;;;;;8.21;87.76;99624.23;107592;1253;108345;-64
2024/04/18 02:05:41;;;;;;;;;;;;;;;8.17;88.10;99623.58;107524;1254;108440;-64
2024/04/18 02:08:16;;;;;;;;;;;;;;;8.04;87.87;99630.50;107520;1254;99671;-63
2024/04/18 02:10:48;;;;;;;;;;;;;;;7.96;88.00;99635.91;107513;1254;99070;-64
2024/04/18 02:13:35;;;;;;;;;;;;;;;7.92;88.04;99637.97;107496;1253;112847;-62
2024/04/18 02:16:04;;;;;;;;;;;;;;;7.92;88.18;99641.83;107596;1254;108595;-63
2024/04/18 02:19:02;;;;;;;;;;;;;;;7.95;88.15;99642.09;107487;1253;107657;-63
2024/04/18 02:21:50;;;;;;;;;;;;;;;7.96;88.03;99641.24;107577;1254;99183;-62
2024/04/18 02:24:36;;;;;;;;;;;;;;;7.98;87.75;99656.49;107559;1254;99195;-62
2024/04/18 02:27:05;;;;;;;;;;;;;;;7.94;87.73;99670.01;107504;1254;112614;-62
2024/04/18 02:29:32;;;;;;;;;;;;;;;7.87;87.20;99669.44;107574;1252;107916;-62
2024/04/18 02:32:00;;;;;;;;;;;;;;;7.90;87.50;99665.66;107566;1254;107963;-62
2024/04/18 02:34:31;;;;;;;;;;;;;;;7.93;87.65;99665.30;107560;1254;99068;-62
2024/04/18 02:37:21;;;;;;;;;;;;;;;7.94;87.60;99658.65;107549;1254;99067;-61
2024/04/18 02:39:48;;;;;;;;;;;;;;;7.94;87.62;99654.18;107558;1253;113299;-62
2024/04/18 02:42:26;;;;;;;;;;;;;;;7.93;87.65;99642.08;107498;1252;108107;-63
2024/04/18 02:44:59;;;;;;;;;;;;;;;7.92;87.79;99641.69;107447;1254;107788;-63
2024/04/18 02:47:28;;;;;;;;;;;;;;;7.89;87.45;99661.92;107558;1254;99525;-63
2024/04/18 02:50:06;;;;;;;;;;;;;;;7.90;87.46;99665.31;107517;1254;99275;-61
2024/04/18 02:52:34;;;;;;;;;;;;;;;7.92;87.61;99670.64;107566;1254;112800;-63
2024/04/18 02:55:14;;;;;;;;;;;;;;;7.95;87.83;99670.13;107549;1254;107485;-63
2024/04/18 02:57:54;;;;;;;;;;;;;;;7.98;87.75;99669.45;107555;1254;108227;-64
2024/04/18 03:00:23;;;;;;;;;;;;;;;8.03;87.87;99666.74;107602;1254;99172;-62
2024/04/18 03:03:10;;;;;;;;;;;;;;;8.07;87.38;99666.46;107589;1254;99250;-63
2024/04/18 03:06:02;;;;;;;;;;;;;;;8.09;87.28;99668.80;107647;1254;114439;-62
2024/04/18 03:08:30;;;;;;;;;;;;;;;8.13;87.40;99667.53;107634;1254;106648;-63
2024/04/18 03:11:15;;;;;;;;;;;;;;;8.17;87.22;99666.61;107596;1253;108681;-63
2024/04/18 03:14:02;;;;;;;;;;;;;;;8.21;87.21;99669.98;107606;1254;99291;-63
2024/04/18 03:16:31;;;;;;;;;;;;;;;8.25;87.24;99668.55;107597;1254;99204;-63
2024/04/18 03:19:18;;;;;;;;;;;;;;;8.23;86.58;99663.91;107567;1254;112262;-63
2024/04/18 03:21:53;;;;;;;;;;;;;;;8.23;86.76;99663.89;107644;1254;107251;-62
2024/04/18 03:24:22;;;;;;;;;;;;;;;8.23;86.51;99659.97;107607;1255;107652;-62
2024/04/18 03:26:51;;;;;;;;;;;;;;;8.10;85.29;99663.48;107591;1256;99271;-63
2024/04/18 03:29:19;;;;;;;;;;;;;;;7.96;85.44;99668.79;107582;1255;99223;-62
2024/04/18 03:31:59;;;;;;;;;;;;;;;7.87;85.77;99669.33;107587;1252;112293;-62
2024/04/18 03:34:45;;;;;;;;;;;;;;;7.84;86.15;99668.52;107617;1253;107655;-63
2024/04/18 03:37:14;;;;;;;;;;;;;;;7.75;86.39;99662.54;107548;1253;106880;-64
2024/04/18 03:39:42;;;;;;;;;;;;;;;7.69;86.44;99656.33;107519;1254;99818;-62
2024/04/18 03:42:10;;;;;;;;;;;;;;;7.66;86.64;99653.02;107495;1254;99183;-63
2024/04/18 03:44:53;;;;;;;;;;;;;;;7.70;87.32;99652.36;107579;1254;113239;-62
2024/04/18 03:47:21;;;;;;;;;;;;;;;7.71;87.52;99653.14;107567;1254;108606;-62
2024/04/18 03:50:08;;;;;;;;;;;;;;;7.68;87.21;99658.42;107560;1254;107958;-62
2024/04/18 03:52:39;;;;;;;;;;;;;;;7.60;87.08;99658.04;107563;1254;99281;-62
2024/04/18 03:55:26;;;;;;;;;;;;;;;7.54;87.70;99659.13;107571;1254;99057;-62
2024/04/18 03:57:54;;;;;;;;;;;;;;;7.54;87.51;99651.73;107541;1254;113033;-66
2024/04/18 04:00:41;;;;;;;;;;;;;;;7.61;87.90;99648.85;107521;1254;108301;-62
2024/04/18 04:03:10;;;;;;;;;;;;;;;7.61;87.41;99645.85;107571;1254;107465;-62
2024/04/18 04:05:38;;;;;;;;;;;;;;;7.63;87.65;99644.02;107558;1254;99172;-63
2024/04/18 04:08:06;;;;;;;;;;;;;;;7.68;87.77;99643.03;107571;1254;99291;-63
2024/04/18 04:10:41;;;;;;;;;;;;;;;7.76;87.63;99640.70;107610;1255;112466;-65
2024/04/18 04:13:09;;;;;;;;;;;;;;;7.83;87.57;99635.57;107643;1255;108656;-62
2024/04/18 04:15:47;;;;;;;;;;;;;;;7.89;87.46;99636.62;107600;1255;107610;-63
2024/04/18 04:18:34;;;;;;;;;;;;;;;7.96;87.49;99635.08;107599;1253;99752;-63
2024/04/18 04:21:22;;;;;;;;;;;;;;;8.02;87.11;99631.43;107558;1254;99073;-63
2024/04/18 04:23:50;;;;;;;;;;;;;;;8.05;87.09;99629.40;107585;1254;113552;-63
2024/04/18 04:26:19;;;;;;;;;;;;;;;8.09;86.93;99628.29;107581;1251;108895;-63
2024/04/18 04:28:47;;;;;;;;;;;;;;;8.12;86.85;99633.33;107581;1255;107729;-63
2024/04/18 04:31:15;;;;;;;;;;;;;;;8.16;87.01;99634.25;107565;1254;99160;-63
2024/04/18 04:33:43;;;;;;;;;;;;;;;8.20;86.84;99639.20;107605;1255;99093;-62
2024/04/18 04:36:11;;;;;;;;;;;;;;;8.22;86.75;99632.52;107593;1254;113576;-64
2024/04/18 04:38:39;;;;;;;;;;;;;;;8.26;86.50;99631.63;107558;1257;108227;-64
2024/04/18 04:41:07;;;;;;;;;;;;;;;8.30;86.63;99636.97;107587;1254;107789;-63
2024/04/18 04:43:35;;;;;;;;;;;;;;;8.30;86.14;99636.43;107595;1257;99261;-63
2024/04/18 04:46:14;;;;;;;;;;;;;;;8.22;85.30;99641.33;107612;1256;99168;-64
2024/04/18 04:48:42;;;;;;;;;;;;;;;8.23;85.57;99638.92;107626;1254;114277;-63
2024/04/18 04:51:11;;;;;;;;;;;;;;;8.24;85.58;99635.59;107606;1252;107433;-63
2024/04/18 04:53:39;;;;;;;;;;;;;;;8.26;85.65;99638.27;107592;1256;107745;-63
2024/04/18 04:56:07;;;;;;;;;;;;;;;8.25;85.29;99640.52;107600;1254;99182;-62
2024/04/18 04:58:35;;;;;;;;;;;;;;;8.25;85.30;99646.56;107636;1254;99189;-63
2024/04/18 05:01:04;;;;;;;;;;;;;;;8.29;85.29;99648.89;107618;1256;113490;-63
2024/04/18 05:03:38;;;;;;;;;;;;;;;8.32;85.32;99648.72;107628;1254;108538;-63
2024/04/18 05:06:24;;;;;;;;;;;;;;;8.37;85.17;99654.33;107587;1255;108314;-63
2024/04/18 05:09:14;;;;;;;;;;;;;;;8.38;85.01;99658.88;107576;1254;99199;-62
2024/04/18 05:11:42;;;;;;;;;;;;;;;8.40;84.81;99653.84;107598;1256;99151;-64
2024/04/18 05:14:29;;;;;;;;;;;;;;;8.43;84.69;99652.29;107554;1256;113041;-62
2024/04/18 05:16:57;;;;;;;;;;;;;;;8.47;84.75;99648.52;107549;1257;107401;-65
2024/04/18 05:19:24;;;;;;;;;;;;;;;8.47;84.25;99647.47;107580;1256;108576;-63
2024/04/18 05:21:52;;;;;;;;;;;;;;;8.47;84.44;99644.77;107604;1254;99166;-62
2024/04/18 05:24:33;;;;;;;;;;;;;;;8.50;84.50;99637.16;107600;1254;99188;-64
2024/04/18 05:27:02;;;;;;;;;;;;;;;8.53;84.29;99641.41;107621;1254;113146;-63
2024/04/18 05:32:16;;;;;;;;;;;;;;;8.53;83.94;99643.34;107585;1254;108314;-63
2024/04/18 05:35:03;;;;;;;;;;;;;;;8.51;83.90;99639.08;107643;1254;99947;-64
2024/04/18 05:37:32;;;;;;;;;;;;;;;8.45;83.62;99638.52;107630;1254;99179;-64
2024/04/18 05:39:59;;;;;;;;;;;;;;;8.42;83.64;99640.27;107565;1254;112307;-63
2024/04/18 05:42:28;;;;;;;;;;;;;;;8.38;83.62;99641.89;107606;1255;108308;-63
2024/04/18 05:45:08;;;;;;;;;;;;;;;8.41;83.86;99645.04;107604;1256;107324;-62
2024/04/18 05:47:56;;;;;;;;;;;;;;;8.43;83.79;99643.42;107570;1254;99338;-63
2024/04/18 05:50:25;;;;;;;;;;;;;;;8.46;83.79;99637.57;107598;1256;99193;-62
2024/04/18 05:52:53;;;;;;;;;;;;;;;8.49;83.88;99635.73;107657;1257;112562;-64
2024/04/18 05:55:21;;;;;;;;;;;;;;;8.52;83.74;99640.58;107588;1254;107915;-64
2024/04/18 05:57:49;;;;;;;;;;;;;;;8.58;83.79;99636.08;107596;1254;108226;-64
2024/04/18 06:00:36;;;;;;;;;;;;;;;8.63;83.88;99636.44;107536;1255;99191;-62
2024/04/18 06:03:04;;;;;;;;;;;;;;;8.67;83.34;99636.96;107535;1254;99037;-64
2024/04/18 06:05:32;;;;;;;;;;;;;;;8.59;82.53;99640.58;107538;1257;112616;-64
2024/04/18 06:08:15;;;;;;;;;;;;;;;8.58;82.75;99639.08;107474;1256;108851;-65
2024/04/18 06:10:43;;;;;;;;;;;;;;;8.62;82.89;99633.16;107504;1257;108113;-64
2024/04/18 06:13:19;;;;;;;;;;;;;;;8.58;82.62;99626.23;106818;1255;99195;-64
2024/04/18 06:15:47;;;;;;;;;;;;;;;8.54;82.45;99625.58;107622;1254;99166;-62
2024/04/18 06:18:16;;;;;;;;;;;;;;;8.54;82.73;99642.67;107596;1253;112589;-63
2024/04/18 06:20:50;;;;;;;;;;;;;;;8.41;82.34;99653.92;107608;1256;107654;-66
2024/04/18 06:23:18;;;;;;;;;;;;;;;8.24;82.32;99650.80;107584;1255;106650;-64
2024/04/18 06:26:06;;;;;;;;;;;;;;;8.14;82.60;99646.89;107604;1253;99188;-63
2024/04/18 06:28:34;;;;;;;;;;;;;;;8.10;82.56;99639.27;107590;1254;99178;-65
2024/04/18 06:31:03;;;;;;;;;;;;;;;8.19;83.27;99633.75;107601;1256;113386;-64
2024/04/18 06:33:31;;;;;;;;;;;;;;;8.30;83.45;99630.02;107631;1254;107861;-64
2024/04/18 06:35:59;;;;;;;;;;;;;;;8.42;83.78;99641.18;107589;1257;107917;-68
2024/04/18 06:38:27;;;;;;;;;;;;;;;8.49;83.54;99643.05;107629;1256;99197;-64
2024/04/18 06:40:55;;;;;;;;;;;;;;;8.53;83.14;99640.73;107585;1254;99157;-64
2024/04/18 06:43:40;;;;;;;;;;;;;;;8.61;83.62;99637.52;107625;1254;112465;-64
2024/04/18 06:46:09;;;;;;;;;;;;;;;8.69;83.57;99635.02;107560;1254;107653;-63
2024/04/18 06:48:37;;;;;;;;;;;;;;;8.76;83.28;99639.50;107620;1254;107690;-64
2024/04/18 06:51:05;;;;;;;;;;;;;;;8.82;83.26;99640.40;107602;1254;99175;-64
2024/04/18 06:53:33;;;;;;;;;;;;;;;8.83;83.07;99644.30;107676;1254;99179;-63
2024/04/18 06:56:02;;;;;;;;;;;;;;;8.81;82.74;99647.06;107627;1256;112519;-64
2024/04/18 06:58:30;;;;;;;;;;;;;;;8.68;82.07;99645.84;107590;1255;107545;-64
2024/04/18 07:00:58;;;;;;;;;;;;;;;8.58;82.27;99651.11;107591;1254;108452;-64
2024/04/18 07:03:26;;;;;;;;;;;;;;;8.60;82.86;99648.52;107575;1254;99163;-65
2024/04/18 07:05:54;;;;;;;;;;;;;;;8.64;82.90;99646.59;107615;1254;99140;-63
2024/04/18 07:08:24;;;;;;;;;;;;;;;8.48;82.07;99645.03;107643;1254;113490;-65
2024/04/18 07:10:53;;;;;;;;;;;;;;;8.43;82.48;99649.41;107642;1255;108228;-64
2024/04/18 07:13:31;;;;;;;;;;;;;;;8.41;83.10;99656.56;107599;1251;108168;-63
2024/04/18 07:16:21;;;;;;;;;;;;;;;8.30;82.85;99660.35;107640;1255;99179;-65
2024/04/18 07:18:55;;;;;;;;;;;;;;;8.26;82.95;99658.83;107608;1253;99217;-64
2024/04/18 07:21:23;;;;;;;;;;;;;;;8.30;83.30;99652.71;107575;1253;112115;-64
2024/04/18 07:24:11;;;;;;;;;;;;;;;8.36;83.28;99646.36;107635;1254;108587;-64
2024/04/18 07:26:42;;;;;;;;;;;;;;;8.44;83.30;99650.66;107552;1257;107847;-62
2024/04/18 07:29:10;;;;;;;;;;;;;;;8.51;83.17;99649.96;107550;1257;99259;-63
2024/04/18 07:31:38;;;;;;;;;;;;;;;8.58;82.76;99652.15;107548;1254;99243;-63
2024/04/18 07:34:15;;;;;;;;;;;;;;;8.66;82.69;99657.98;107605;1254;112966;-63
2024/04/18 07:36:45;;;;;;;;;;;;;;;8.80;82.60;99657.17;107546;1254;108345;-62
2024/04/18 07:39:14;;;;;;;;;;;;;;;8.81;82.15;99650.98;107541;1254;106633;-63
2024/04/18 07:41:42;;;;;;;;;;;;;;;8.82;82.19;99648.08;107557;1254;99288;-63
2024/04/18 07:44:11;;;;;;;;;;;;;;;8.84;82.38;99649.27;107614;1253;99175;-63
2024/04/18 07:46:40;;;;;;;;;;;;;;;8.88;82.13;99657.77;107582;1254;114266;-64
2024/04/18 07:49:10;;;;;;;;;;;;;;;9.02;82.57;99656.98;107547;1254;108382;-62
2024/04/18 07:51:38;;;;;;;;;;;;;;;9.11;82.06;99648.59;107566;1254;108684;-64
2024/04/18 07:54:07;;;;;;;;;;;;;;;9.18;82.20;99651.94;107562;1254;99166;-65
2024/04/18 07:56:35;;;;;;;;;;;;;;;9.26;81.85;99649.89;107640;1254;99191;-64
2024/04/18 07:59:03;;;;;;;;;;;;;;;9.28;81.16;99647.88;107586;1254;113852;-64
2024/04/18 08:01:34;;;;;;;;;;;;;;;9.21;80.56;99638.61;107601;1251;108763;-64
2024/04/18 08:04:06;;;;;;;;;;;;;;;9.14;80.25;99641.80;107543;1257;108663;-65
2024/04/18 08:06:54;;;;;;;;;;;;;;;9.05;80.32;99644.67;107620;1254;99314;-64
2024/04/18 08:09:25;;;;;;;;;;;;;;;9.06;81.09;99646.52;107572;1255;99208;-64
2024/04/18 08:11:58;;;;;;;;;;;;;;;9.12;81.08;99652.44;107618;1254;112836;-65
2024/04/18 08:14:29;;;;;;;;;;;;;;;9.16;81.00;99650.52;107572;1254;107723;-63
2024/04/18 08:17:04;;;;;;;;;;;;;;;9.30;81.48;99645.08;107576;1254;108129;-64
2024/04/18 08:19:32;;;;;;;;;;;;;;;9.45;81.63;99634.55;107608;1254;99215;-64
2024/04/18 08:22:00;;;;;;;;;;;;;;;9.60;81.82;99631.06;107604;1255;99265;-64
2024/04/18 08:24:33;;;;;;;;;;;;;;;9.59;79.37;99631.86;107633;1256;112646;-63
2024/04/18 08:27:08;;;;;;;;;;;;;;;9.53;79.99;99636.02;107581;1254;108812;-62
2024/04/18 08:29:36;;;;;;;;;;;;;;;9.54;80.04;99642.96;107599;1254;108739;-63
2024/04/18 08:32:04;;;;;;;;;;;;;;;9.62;80.64;99648.41;107580;1254;99338;-63
2024/04/18 08:34:34;;;;;;;;;;;;;;;9.63;79.69;99645.31;107642;1254;99069;-63
2024/04/18 08:37:06;;;;;;;;;;;;;;;9.54;79.15;99646.49;107429;1254;112806;-62
2024/04/18 08:39:34;;;;;;;;;;;;;;;9.49;79.55;99644.95;107637;1254;108834;-63
2024/04/18 08:42:04;;;;;;;;;;;;;;;9.42;79.25;99648.33;107588;1254;107917;-62
2024/04/18 08:44:32;;;;;;;;;;;;;;;9.28;79.47;99653.63;107633;1257;99210;-63
2024/04/18 08:47:01;;;;;;;;;;;;;;;9.25;79.56;99658.27;107687;1252;99073;-63
2024/04/18 08:49:29;;;;;;;;;;;;;;;9.06;78.39;99657.80;107613;1254;113269;-62
2024/04/18 08:51:58;;;;;;;;;;;;;;;9.03;79.52;99650.42;107654;1254;107805;-62
2024/04/18 08:54:29;;;;;;;;;;;;;;;9.10;79.84;99637.77;107616;1253;108871;-64
2024/04/18 08:57:00;;;;;;;;;;;;;;;9.35;80.29;99632.73;107539;1255;99185;-63
2024/04/18 08:59:28;;;;;;;;;;;;;;;9.53;80.17;99636.05;107662;1253;99197;-63
2024/04/18 09:01:57;;;;;;;;;;;;;;;9.65;79.51;99634.85;107606;1256;113165;-63
2024/04/18 09:04:24;;;;;;;;;;;;;;;9.73;79.12;99636.21;107632;1251;107983;-62
2024/04/18 09:06:52;;;;;;;;;;;;;;;9.86;79.01;99643.30;107613;1254;108419;-62
2024/04/18 09:09:22;;;;;;;;;;;;;;;9.81;78.01;99644.55;107592;1254;99197;-63
2024/04/18 09:11:50;;;;;;;;;;;;;;;9.77;78.16;99643.66;107634;1255;99182;-63
2024/04/18 09:14:18;;;;;;;;;;;;;;;9.75;77.71;99639.35;107568;1255;112731;-64
2024/04/18 09:16:46;;;;;;;;;;;;;;;9.80;77.42;99636.94;107386;1254;108200;-63
2024/04/18 09:19:14;;;;;;;;;;;;;;;9.84;77.67;99642.59;107657;1254;108121;-63
2024/04/18 09:21:43;;;;;;;;;;;;;;;9.93;77.62;99640.97;107514;1254;99294;-63
2024/04/18 09:24:11;;;;;;;;;;;;;;;9.85;77.56;99642.42;107544;1254;99263;-61
2024/04/18 09:26:40;;;;;;;;;;;;;;;9.86;77.13;99641.33;107556;1254;112645;-62
2024/04/18 09:29:08;;;;;;;;;;;;;;;10.00;78.07;99640.73;107536;1254;107519;-62
2024/04/18 09:31:38;;;;;;;;;;;;;;;10.14;78.06;99642.50;107482;1255;108239;-63
2024/04/18 09:34:13;;;;;;;;;;;;;;;10.19;78.02;99640.92;107506;1254;99193;-64
2024/04/18 09:36:42;;;;;;;;;;;;;;;10.18;77.55;99645.69;107525;1254;99314;-64
2024/04/18 09:39:16;;;;;;;;;;;;;;;10.13;77.12;99652.46;107556;1254;113384;-63
2024/04/18 09:41:49;;;;;;;;;;;;;;;10.03;76.18;99647.61;107544;1254;107701;-63
2024/04/18 09:44:24;;;;;;;;;;;;;;;10.07;76.86;99653.25;107544;1254;108291;-63
2024/04/18 09:46:56;;;;;;;;;;;;;;;10.02;75.59;99651.59;107562;1254;99226;-63
2024/04/18 09:49:25;;;;;;;;;;;;;;;9.97;75.55;99654.88;107626;1252;99185;-63
2024/04/18 09:51:55;;;;;;;;;;;;;;;9.95;75.25;99658.84;107625;1254;111267;-62
2024/04/18 09:54:23;;;;;;;;;;;;;;;10.01;76.35;99658.50;107620;1254;107620;-62
2024/04/18 09:56:51;;;;;;;;;;;;;;;10.02;75.89;99660.45;107608;1254;108269;-63
2024/04/18 09:59:21;;;;;;;;;;;;;;;9.94;75.80;99662.32;107558;1252;99207;-64
2024/04/18 10:01:48;;;;;;;;;;;;;;;9.71;75.50;99657.52;107475;1252;99809;-65
2024/04/18 10:04:16;;;;;;;;;;;;;;;9.60;76.08;99662.41;107586;1254;112604;-65
2024/04/18 10:06:48;;;;;;;;;;;;;;;9.65;76.60;99658.09;107664;1254;107872;-63
2024/04/18 10:09:18;;;;;;;;;;;;;;;9.77;77.17;99656.04;107533;1255;106769;-63
2024/04/18 10:11:48;;;;;;;;;;;;;;;9.69;77.01;99664.30;107552;1256;99354;-64
2024/04/18 10:14:16;;;;;;;;;;;;;;;9.55;76.49;99668.95;107613;1251;99073;-64
2024/04/18 10:16:48;;;;;;;;;;;;;;;9.42;76.83;99672.28;107621;1254;113057;-65
2024/04/18 10:19:22;;;;;;;;;;;;;;;9.30;76.96;99674.57;107665;1254;107565;-63
2024/04/18 10:21:56;;;;;;;;;;;;;;;9.20;77.36;99669.13;107592;1252;107623;-64
2024/04/18 10:24:48;;;;;;;;;;;;;;;9.16;77.94;99674.91;107598;1254;99170;-64
2024/04/18 10:27:18;;;;;;;;;;;;;;;9.08;78.45;99679.23;107562;1255;99261;-62
2024/04/18 10:29:53;;;;;;;;;;;;;;;8.97;78.70;99678.93;107589;1253;112588;-63
2024/04/18 10:32:29;;;;;;;;;;;;;;;8.92;79.38;99672.98;107600;1253;108374;-63
2024/04/18 10:35:00;;;;;;;;;;;;;;;9.10;80.08;99670.23;107621;1254;108736;-63
2024/04/18 10:37:28;;;;;;;;;;;;;;;9.12;79.57;99667.40;107560;1254;99197;-63
2024/04/18 10:39:57;;;;;;;;;;;;;;;9.15;80.28;99670.19;107606;1254;99302;-63
2024/04/18 10:42:25;;;;;;;;;;;;;;;9.24;80.68;99669.23;107521;1253;113743;-63
2024/04/18 10:44:54;;;;;;;;;;;;;;;9.34;80.57;99669.70;107430;1253;108351;-63
2024/04/18 10:47:22;;;;;;;;;;;;;;;9.42;80.74;99669.46;107428;1253;107289;-62
2024/04/18 10:49:50;;;;;;;;;;;;;;;9.52;80.84;99670.23;107449;1252;99305;-63
2024/04/18 10:52:18;;;;;;;;;;;;;;;9.53;80.01;99675.23;107475;1253;99163;-63
2024/04/18 10:54:47;;;;;;;;;;;;;;;9.43;79.38;99676.96;107419;1253;113217;-62
2024/04/18 10:57:15;;;;;;;;;;;;;;;9.27;80.03;99674.73;107566;1253;108472;-63
2024/04/18 10:59:45;;;;;;;;;;;;;;;9.23;80.55;99676.85;107588;1254;108309;-63
2024/04/18 11:02:14;;;;;;;;;;;;;;;9.29;80.88;99679.89;107562;1253;99179;-63
2024/04/18 11:04:42;;;;;;;;;;;;;;;9.26;80.46;99678.50;107652;1254;99322;-63
2024/04/18 11:07:13;;;;;;;;;;;;;;;9.21;80.16;99677.78;107603;1252;113256;-63
2024/04/18 11:09:43;;;;;;;;;;;;;;;9.12;80.09;99679.78;107616;1254;108071;-63
2024/04/18 11:12:13;;;;;;;;;;;;;;;9.11;80.81;99684.16;107544;1254;108392;-66
2024/04/18 11:14:42;;;;;;;;;;;;;;;9.03;80.93;99686.84;107657;1254;99220;-63
2024/04/18 11:17:10;;;;;;;;;;;;;;;9.01;80.65;99690.48;107576;1256;99303;-64
2024/04/18 11:19:38;;;;;;;;;;;;;;;9.03;80.98;99688.65;107582;1252;112726;-62
2024/04/18 11:22:06;;;;;;;;;;;;;;;9.07;81.28;99687.38;107525;1256;107853;-63
2024/04/18 11:24:35;;;;;;;;;;;;;;;9.22;81.64;99687.17;107514;1253;108058;-62
2024/04/18 11:27:04;;;;;;;;;;;;;;;9.31;81.10;99689.01;107508;1254;99278;-62
2024/04/18 11:29:32;;;;;;;;;;;;;;;9.44;81.22;99684.21;107547;1254;99209;-62
2024/04/18 11:32:04;;;;;;;;;;;;;;;9.62;80.78;99682.26;107594;1253;113138;-63
2024/04/18 11:34:33;;;;;;;;;;;;;;;9.66;79.41;99684.95;107629;1251;109050;-62
2024/04/18 11:37:03;;;;;;;;;;;;;;;9.63;79.60;99686.23;107612;1253;107820;-62
2024/04/18 11:39:31;;;;;;;;;;;;;;;9.69;79.03;99689.39;107618;1253;99194;-62
2024/04/18 11:41:59;;;;;;;;;;;;;;;9.56;78.34;99692.93;107625;1254;99311;-63
2024/04/18 11:44:28;;;;;;;;;;;;;;;9.40;77.77;99688.20;107609;1254;113486;-63
2024/04/18 11:46:58;;;;;;;;;;;;;;;9.50;78.80;99688.35;107587;1254;107632;-64
2024/04/18 11:49:26;;;;;;;;;;;;;;;9.66;78.92;99692.20;107424;1254;108510;-63
2024/04/18 11:51:54;;;;;;;;;;;;;;;9.73;78.28;99689.39;107643;1254;99312;-64
2024/04/18 11:54:23;;;;;;;;;;;;;;;9.86;78.31;99688.77;107676;1254;99080;-65
2024/04/18 11:56:51;;;;;;;;;;;;;;;9.96;77.79;99692.19;107613;1253;112262;-63
2024/04/18 11:59:31;;;;;;;;;;;;;;;9.84;76.55;99704.51;107596;1254;107795;-63
2024/04/18 12:02:00;;;;;;;;;;;;;;;9.62;76.14;99697.30;107608;1254;108089;-62
2024/04/18 12:04:28;;;;;;;;;;;;;;;9.42;75.45;99698.73;107568;1256;99282;-63
2024/04/18 12:06:56;;;;;;;;;;;;;;;9.44;75.66;99699.15;107673;1253;99377;-63
2024/04/18 12:09:27;;;;;;;;;;;;;;;9.59;76.20;99697.08;107647;1253;113094;-63
2024/04/18 12:12:00;;;;;;;;;;;;;;;9.76;75.89;99706.19;107675;1254;108273;-63
2024/04/18 12:14:46;;;;;;;;;;;;;;;10.01;75.95;99709.04;107557;1253;107965;-63
2024/04/18 12:17:28;;;;;;;;;;;;;;;9.92;74.71;99714.48;107643;1254;99146;-62
2024/04/18 12:20:17;;;;;;;;;;;;;;;9.87;75.04;99712.32;107637;1254;99083;-63
2024/04/18 12:22:45;;;;;;;;;;;;;;;9.88;75.42;99712.79;107689;1254;112404;-62
2024/04/18 12:25:15;;;;;;;;;;;;;;;9.70;75.18;99715.80;107624;1254;108367;-64
2024/04/18 12:27:43;;;;;;;;;;;;;;;9.54;75.05;99716.37;107651;1254;106900;-64
2024/04/18 12:30:30;;;;;;;;;;;;;;;9.52;75.09;99712.93;107591;1252;99165;-64
2024/04/18 12:33:17;;;;;;;;;;;;;;;9.47;74.79;99712.45;107587;1254;99196;-64
2024/04/18 12:35:47;;;;;;;;;;;;;;;9.48;75.21;99711.59;107615;1255;113184;-63
2024/04/18 12:38:15;;;;;;;;;;;;;;;9.52;74.77;99714.55;107523;1256;108506;-64
2024/04/18 12:40:43;;;;;;;;;;;;;;;9.48;74.17;99713.23;107511;1254;108300;-63
2024/04/18 12:43:12;;;;;;;;;;;;;;;9.39;73.83;99713.02;107578;1253;99236;-63
2024/04/18 12:45:55;;;;;;;;;;;;;;;9.38;73.76;99711.27;107652;1254;99169;-63
2024/04/18 12:48:53;;;;;;;;;;;;;;;9.49;73.66;99714.66;107644;1253;113275;-63
2024/04/18 12:51:22;;;;;;;;;;;;;;;9.60;73.91;99716.11;107634;1254;107362;-62
2024/04/18 12:53:50;;;;;;;;;;;;;;;9.80;74.11;99713.36;107611;1254;107666;-63
2024/04/18 12:56:47;;;;;;;;;;;;;;;9.99;73.00;99716.59;107553;1254;99070;-62
2024/04/18 12:59:22;;;;;;;;;;;;;;;10.01;72.31;99720.52;107575;1255;99244;-63
2024/04/18 13:01:50;;;;;;;;;;;;;;;9.89;71.56;99720.39;107506;1254;112777;-64
2024/04/18 13:04:20;;;;;;;;;;;;;;;9.84;72.60;99722.86;107616;1253;108918;-62
2024/04/18 13:06:49;;;;;;;;;;;;;;;9.88;73.15;99723.31;107585;1253;108257;-63
2024/04/18 13:09:32;;;;;;;;;;;;;;;9.89;73.27;99724.25;107601;1252;99314;-62
2024/04/18 13:12:02;;;;;;;;;;;;;;;9.82;72.46;99729.83;107651;1253;99201;-63